Hovedside
METAR-TAF:

METAR-TAF

Lufthavner :

Molde lufthavn. Årø

Molde, Norge

breddegrad: 62-45N, lengdegrad: 007-16E, høyde over havet: 0 m

Gjeldene værobservasjon

Denne rapporten ble laget for 27 minutter siden, klokken 18:20 UTC
Vind 6 kt fra Nord-nordøst
Temperatur 0°C
Luftfuktighet 93%
Trykk 1037 hPa
Sikt 10 km eller mer
Få skyer i en høyde av 200 ft

METAR: ENML 191820Z 02006KT 9999 FEW002 M00/M01 Q1037

Tid: 19:47 (18:47 UTC)

Varsel

Denne rapporten ble laget for 1 time og 47 minutter siden, klokken 17:00 UTC
Varsel gyldig fra 19. klokken 18 UTC til 19. klokken 22 UTC
Vind 5 kt fra Øst-nordøst
Sikt 10 km eller mer
Få skyer i en høyde av 200 ft
Spredte skyer i en høyde av 2500 ft
Sannsynlighet 30%
fra 19. klokken 18 UTC til 19. klokken 22 UTC
Sikt: 1500 m
tåkebanker

TAF: ENML 191700Z 1918/1922 06005KT 9999 FEW002 SCT025 PROB30 1918/1922 1500 BCFG

Værobservasjoner og værvarsel for over 4000 flyplasser (METAR- og TAF-rapporter).

Tilgjengelige stasjoner er representert av de røde og gule prikkene på kartet.

Hold musepekeren over prikken for å se navnet på stasjonen.

Klikk så for å se værobservasjoner og -varsler.

For å forandre kartet kan du klikke på den grønne knappen med svart kryss for å zoome inn, på den grønne knappen med strek for å zoome ut, eller på de grønne pilene for å se tilstøtende kart.


METAR-TAF: